Terminal Aerodrome Forecast
Issued by NWS

Home | Current Version | Previous Version | Text Only | Print | Product List | Glossary On
Versions: 1 2 3 4 5 6 7 8 9 10 11 12 13 14 15 16
000
FTAK31 PAJN 201700
TAFAKT
TAF
PAKT 201734Z 2018/2118 14020G30KT 6SM -RA BR SCT008 BKN015 OVC025
      WS020/17040KT
      TEMPO 2018/2022 2SM RA BR OVC008
     FM202200 14015G25KT 6SM -RA BR BKN012 OVC022
     FM210000 14012KT 5SM -RA BR BKN010 OVC025
     FM210600 14015KT 3SM -RA BR BKN006 OVC010=

USA.gov is the U.S. government's official web portal to all federal, state and local government web resources and services.